sensor_id;sensor_type;location;lat;lon;timestamp;temperature;humidity
27314;DHT22;14800;48.174;9.798;2022-08-01T00:01:53;21.40;59.00
27314;DHT22;14800;48.174;9.798;2022-08-01T00:04:19;21.30;59.20
27314;DHT22;14800;48.174;9.798;2022-08-01T00:06:45;21.30;59.20
27314;DHT22;14800;48.174;9.798;2022-08-01T00:09:10;21.30;59.30
27314;DHT22;14800;48.174;9.798;2022-08-01T00:11:36;21.30;59.30
27314;DHT22;14800;48.174;9.798;2022-08-01T00:14:02;21.20;59.30
27314;DHT22;14800;48.174;9.798;2022-08-01T00:16:28;21.30;59.70
27314;DHT22;14800;48.174;9.798;2022-08-01T00:18:54;21.30;59.60
27314;DHT22;14800;48.174;9.798;2022-08-01T00:21:20;21.20;59.60
27314;DHT22;14800;48.174;9.798;2022-08-01T00:23:46;21.20;59.60
27314;DHT22;14800;48.174;9.798;2022-08-01T00:26:12;21.20;59.60
27314;DHT22;14800;48.174;9.798;2022-08-01T00:28:38;21.20;59.80
27314;DHT22;14800;48.174;9.798;2022-08-01T00:31:04;21.20;59.70
27314;DHT22;14800;48.174;9.798;2022-08-01T00:33:29;21.20;59.70
27314;DHT22;14800;48.174;9.798;2022-08-01T00:35:55;21.20;59.70
27314;DHT22;14800;48.174;9.798;2022-08-01T00:38:21;21.20;59.60
27314;DHT22;14800;48.174;9.798;2022-08-01T00:40:47;21.20;59.60
27314;DHT22;14800;48.174;9.798;2022-08-01T00:43:13;21.20;59.80
27314;DHT22;14800;48.174;9.798;2022-08-01T00:45:38;21.20;59.60
27314;DHT22;14800;48.174;9.798;2022-08-01T00:48:04;21.10;59.50
27314;DHT22;14800;48.174;9.798;2022-08-01T00:50:30;21.10;59.70
27314;DHT22;14800;48.174;9.798;2022-08-01T00:52:55;21.10;59.60
27314;DHT22;14800;48.174;9.798;2022-08-01T00:55:23;21.10;60.00
27314;DHT22;14800;48.174;9.798;2022-08-01T00:57:49;21.00;59.90
27314;DHT22;14800;48.174;9.798;2022-08-01T01:00:15;21.00;59.90
27314;DHT22;14800;48.174;9.798;2022-08-01T01:02:41;21.00;59.80
27314;DHT22;14800;48.174;9.798;2022-08-01T01:05:07;21.00;59.80
27314;DHT22;14800;48.174;9.798;2022-08-01T01:07:54;20.90;59.80
27314;DHT22;14800;48.174;9.798;2022-08-01T01:10:40;20.90;60.50
27314;DHT22;14800;48.174;9.798;2022-08-01T01:13:28;20.80;60.60
27314;DHT22;14800;48.174;9.798;2022-08-01T01:16:10;20.80;60.70
27314;DHT22;14800;48.174;9.798;2022-08-01T01:18:45;20.70;60.40
27314;DHT22;14800;48.174;9.798;2022-08-01T01:21:25;20.70;60.10
27314;DHT22;14800;48.174;9.798;2022-08-01T01:27:06;20.60;60.80
27314;DHT22;14800;48.174;9.798;2022-08-01T01:29:40;20.60;61.60
27314;DHT22;14800;48.174;9.798;2022-08-01T01:32:19;20.60;60.80
27314;DHT22;14800;48.174;9.798;2022-08-01T01:34:48;20.60;61.10
27314;DHT22;14800;48.174;9.798;2022-08-01T01:37:18;20.60;61.10
27314;DHT22;14800;48.174;9.798;2022-08-01T01:39:44;20.60;61.00
27314;DHT22;14800;48.174;9.798;2022-08-01T01:42:11;20.60;61.00
27314;DHT22;14800;48.174;9.798;2022-08-01T01:44:38;20.60;61.10
27314;DHT22;14800;48.174;9.798;2022-08-01T01:47:05;20.50;61.10
27314;DHT22;14800;48.174;9.798;2022-08-01T01:49:31;20.50;61.00
27314;DHT22;14800;48.174;9.798;2022-08-01T01:51:59;20.50;61.30
27314;DHT22;14800;48.174;9.798;2022-08-01T01:54:31;20.50;62.10
27314;DHT22;14800;48.174;9.798;2022-08-01T01:56:59;20.50;61.50
27314;DHT22;14800;48.174;9.798;2022-08-01T01:59:28;20.40;61.70
27314;DHT22;14800;48.174;9.798;2022-08-01T02:01:57;20.40;62.00
27314;DHT22;14800;48.174;9.798;2022-08-01T02:04:24;20.30;62.00
27314;DHT22;14800;48.174;9.798;2022-08-01T02:06:51;20.30;62.00
27314;DHT22;14800;48.174;9.798;2022-08-01T02:09:19;20.20;62.30
27314;DHT22;14800;48.174;9.798;2022-08-01T02:11:47;20.20;62.60
27314;DHT22;14800;48.174;9.798;2022-08-01T02:14:14;20.10;62.80
27314;DHT22;14800;48.174;9.798;2022-08-01T02:16:42;20.10;62.90
27314;DHT22;14800;48.174;9.798;2022-08-01T02:19:09;20.00;63.20
27314;DHT22;14800;48.174;9.798;2022-08-01T02:21:40;20.00;63.30
27314;DHT22;14800;48.174;9.798;2022-08-01T02:24:14;20.00;63.40
27314;DHT22;14800;48.174;9.798;2022-08-01T02:26:46;19.90;63.70
27314;DHT22;14800;48.174;9.798;2022-08-01T02:29:16;19.90;63.70
27314;DHT22;14800;48.174;9.798;2022-08-01T02:31:45;19.80;63.70
27314;DHT22;14800;48.174;9.798;2022-08-01T02:34:16;19.80;63.40
27314;DHT22;14800;48.174;9.798;2022-08-01T02:36:44;19.70;63.80
27314;DHT22;14800;48.174;9.798;2022-08-01T02:39:14;19.60;64.00
27314;DHT22;14800;48.174;9.798;2022-08-01T02:41:43;19.60;64.10
27314;DHT22;14800;48.174;9.798;2022-08-01T02:44:19;19.60;64.10
27314;DHT22;14800;48.174;9.798;2022-08-01T02:46:57;19.50;64.30
27314;DHT22;14800;48.174;9.798;2022-08-01T02:49:24;19.50;64.60
27314;DHT22;14800;48.174;9.798;2022-08-01T02:51:53;19.50;64.40
27314;DHT22;14800;48.174;9.798;2022-08-01T02:54:21;19.40;64.60
27314;DHT22;14800;48.174;9.798;2022-08-01T02:56:49;19.40;64.70
27314;DHT22;14800;48.174;9.798;2022-08-01T02:59:18;19.40;64.50
27314;DHT22;14800;48.174;9.798;2022-08-01T03:01:46;19.40;64.60
27314;DHT22;14800;48.174;9.798;2022-08-01T03:04:12;19.50;64.60
27314;DHT22;14800;48.174;9.798;2022-08-01T03:06:40;19.40;64.60
27314;DHT22;14800;48.174;9.798;2022-08-01T03:09:07;19.40;64.60
27314;DHT22;14800;48.174;9.798;2022-08-01T03:11:35;19.50;64.80
27314;DHT22;14800;48.174;9.798;2022-08-01T03:14:05;19.40;65.00
27314;DHT22;14800;48.174;9.798;2022-08-01T03:16:33;19.40;65.20
27314;DHT22;14800;48.174;9.798;2022-08-01T03:19:01;19.40;65.20
27314;DHT22;14800;48.174;9.798;2022-08-01T03:21:28;19.30;65.20
27314;DHT22;14800;48.174;9.798;2022-08-01T03:23:56;19.30;65.50
27314;DHT22;14800;48.174;9.798;2022-08-01T03:26:27;19.30;65.80
27314;DHT22;14800;48.174;9.798;2022-08-01T03:28:57;19.20;65.90
27314;DHT22;14800;48.174;9.798;2022-08-01T03:31:25;19.20;65.50
27314;DHT22;14800;48.174;9.798;2022-08-01T03:33:51;19.20;65.70
27314;DHT22;14800;48.174;9.798;2022-08-01T03:36:21;19.20;66.00
27314;DHT22;14800;48.174;9.798;2022-08-01T03:38:50;19.20;66.10
27314;DHT22;14800;48.174;9.798;2022-08-01T03:41:20;19.10;66.20
27314;DHT22;14800;48.174;9.798;2022-08-01T03:43:57;19.10;66.70
27314;DHT22;14800;48.174;9.798;2022-08-01T03:46:30;19.10;66.90
27314;DHT22;14800;48.174;9.798;2022-08-01T03:49:00;19.10;66.80
27314;DHT22;14800;48.174;9.798;2022-08-01T03:51:27;19.10;66.60
27314;DHT22;14800;48.174;9.798;2022-08-01T03:53:55;19.10;66.40
27314;DHT22;14800;48.174;9.798;2022-08-01T03:56:21;19.10;66.50
27314;DHT22;14800;48.174;9.798;2022-08-01T03:58:48;19.00;66.40
27314;DHT22;14800;48.174;9.798;2022-08-01T04:01:14;19.10;67.30
27314;DHT22;14800;48.174;9.798;2022-08-01T04:03:41;19.00;66.40
27314;DHT22;14800;48.174;9.798;2022-08-01T04:06:07;19.10;66.60
27314;DHT22;14800;48.174;9.798;2022-08-01T04:08:38;19.10;66.60
27314;DHT22;14800;48.174;9.798;2022-08-01T04:11:04;19.10;66.90
27314;DHT22;14800;48.174;9.798;2022-08-01T04:13:31;19.10;66.40
27314;DHT22;14800;48.174;9.798;2022-08-01T04:15:57;19.20;66.70
27314;DHT22;14800;48.174;9.798;2022-08-01T04:18:22;19.10;67.40
27314;DHT22;14800;48.174;9.798;2022-08-01T04:20:48;19.20;66.60
27314;DHT22;14800;48.174;9.798;2022-08-01T04:23:17;19.20;66.60
27314;DHT22;14800;48.174;9.798;2022-08-01T04:25:44;19.20;66.70
27314;DHT22;14800;48.174;9.798;2022-08-01T04:28:13;19.20;66.60
27314;DHT22;14800;48.174;9.798;2022-08-01T04:30:43;19.20;66.90
27314;DHT22;14800;48.174;9.798;2022-08-01T04:33:12;19.20;66.90
27314;DHT22;14800;48.174;9.798;2022-08-01T04:35:43;19.20;67.00
27314;DHT22;14800;48.174;9.798;2022-08-01T04:38:11;19.20;67.00
27314;DHT22;14800;48.174;9.798;2022-08-01T04:40:42;19.20;66.90
27314;DHT22;14800;48.174;9.798;2022-08-01T04:43:08;19.20;66.70
27314;DHT22;14800;48.174;9.798;2022-08-01T04:45:34;19.20;66.90
27314;DHT22;14800;48.174;9.798;2022-08-01T04:48:01;19.20;67.10
27314;DHT22;14800;48.174;9.798;2022-08-01T04:50:27;19.20;67.10
27314;DHT22;14800;48.174;9.798;2022-08-01T04:52:53;19.20;67.40
27314;DHT22;14800;48.174;9.798;2022-08-01T04:55:19;19.20;67.30
27314;DHT22;14800;48.174;9.798;2022-08-01T04:57:46;19.20;67.30
27314;DHT22;14800;48.174;9.798;2022-08-01T05:00:12;19.20;67.70
27314;DHT22;14800;48.174;9.798;2022-08-01T05:02:38;19.20;67.60
27314;DHT22;14800;48.174;9.798;2022-08-01T05:05:04;19.20;67.80
27314;DHT22;14800;48.174;9.798;2022-08-01T05:07:31;19.20;68.00
27314;DHT22;14800;48.174;9.798;2022-08-01T05:09:58;19.20;68.00
27314;DHT22;14800;48.174;9.798;2022-08-01T05:12:23;19.20;68.20
27314;DHT22;14800;48.174;9.798;2022-08-01T05:14:49;19.20;68.20
27314;DHT22;14800;48.174;9.798;2022-08-01T05:17:14;19.20;68.40
27314;DHT22;14800;48.174;9.798;2022-08-01T05:19:42;19.20;68.50
27314;DHT22;14800;48.174;9.798;2022-08-01T05:22:09;19.20;68.90
27314;DHT22;14800;48.174;9.798;2022-08-01T05:24:36;19.20;68.90
27314;DHT22;14800;48.174;9.798;2022-08-01T05:27:03;19.20;69.20
27314;DHT22;14800;48.174;9.798;2022-08-01T05:29:30;19.20;69.30
27314;DHT22;14800;48.174;9.798;2022-08-01T05:31:56;19.30;69.70
27314;DHT22;14800;48.174;9.798;2022-08-01T05:34:22;19.40;70.00
27314;DHT22;14800;48.174;9.798;2022-08-01T05:36:48;19.50;71.30
27314;DHT22;14800;48.174;9.798;2022-08-01T05:39:14;19.50;70.60
27314;DHT22;14800;48.174;9.798;2022-08-01T05:41:40;19.60;71.40
27314;DHT22;14800;48.174;9.798;2022-08-01T05:44:06;19.60;70.40
27314;DHT22;14800;48.174;9.798;2022-08-01T05:46:32;19.70;70.10
27314;DHT22;14800;48.174;9.798;2022-08-01T05:49:00;19.80;70.30
27314;DHT22;14800;48.174;9.798;2022-08-01T05:51:26;19.90;70.30
27314;DHT22;14800;48.174;9.798;2022-08-01T05:53:52;19.90;70.20
27314;DHT22;14800;48.174;9.798;2022-08-01T05:56:18;20.00;70.40
27314;DHT22;14800;48.174;9.798;2022-08-01T05:58:44;20.10;70.40
27314;DHT22;14800;48.174;9.798;2022-08-01T06:01:10;20.20;69.80
27314;DHT22;14800;48.174;9.798;2022-08-01T06:03:35;20.30;69.00
27314;DHT22;14800;48.174;9.798;2022-08-01T06:06:02;20.40;68.30
27314;DHT22;14800;48.174;9.798;2022-08-01T06:08:28;20.50;68.00
27314;DHT22;14800;48.174;9.798;2022-08-01T06:10:54;20.70;67.70
27314;DHT22;14800;48.174;9.798;2022-08-01T06:13:19;20.80;67.40
27314;DHT22;14800;48.174;9.798;2022-08-01T06:15:45;20.90;66.80
27314;DHT22;14800;48.174;9.798;2022-08-01T06:18:12;21.00;66.40
27314;DHT22;14800;48.174;9.798;2022-08-01T06:20:38;21.20;66.10
27314;DHT22;14800;48.174;9.798;2022-08-01T06:23:03;21.30;65.80
27314;DHT22;14800;48.174;9.798;2022-08-01T06:25:29;21.40;65.80
27314;DHT22;14800;48.174;9.798;2022-08-01T06:27:55;21.50;65.60
27314;DHT22;14800;48.174;9.798;2022-08-01T06:30:21;21.60;65.30
27314;DHT22;14800;48.174;9.798;2022-08-01T06:32:46;21.70;64.50
27314;DHT22;14800;48.174;9.798;2022-08-01T06:35:13;21.80;64.00
27314;DHT22;14800;48.174;9.798;2022-08-01T06:37:39;22.00;63.70
27314;DHT22;14800;48.174;9.798;2022-08-01T06:40:07;22.10;63.40
27314;DHT22;14800;48.174;9.798;2022-08-01T06:42:33;22.20;63.20
27314;DHT22;14800;48.174;9.798;2022-08-01T06:45:07;22.20;62.70
27314;DHT22;14800;48.174;9.798;2022-08-01T06:47:33;22.40;62.60
27314;DHT22;14800;48.174;9.798;2022-08-01T06:49:59;22.40;62.20
27314;DHT22;14800;48.174;9.798;2022-08-01T06:52:24;22.60;61.30
27314;DHT22;14800;48.174;9.798;2022-08-01T06:54:50;22.60;60.70
27314;DHT22;14800;48.174;9.798;2022-08-01T06:57:16;22.70;60.60
27314;DHT22;14800;48.174;9.798;2022-08-01T06:59:41;22.80;60.30
27314;DHT22;14800;48.174;9.798;2022-08-01T07:02:07;22.90;60.20
27314;DHT22;14800;48.174;9.798;2022-08-01T07:04:33;22.90;60.00
27314;DHT22;14800;48.174;9.798;2022-08-01T07:06:59;23.00;59.80
27314;DHT22;14800;48.174;9.798;2022-08-01T07:09:25;23.10;59.50
27314;DHT22;14800;48.174;9.798;2022-08-01T07:11:52;23.20;59.50
27314;DHT22;14800;48.174;9.798;2022-08-01T07:14:18;23.20;60.00
27314;DHT22;14800;48.174;9.798;2022-08-01T07:16:44;23.30;59.70
27314;DHT22;14800;48.174;9.798;2022-08-01T07:19:10;23.40;59.10
27314;DHT22;14800;48.174;9.798;2022-08-01T07:21:36;23.40;58.90
27314;DHT22;14800;48.174;9.798;2022-08-01T07:24:01;23.50;59.00
27314;DHT22;14800;48.174;9.798;2022-08-01T07:26:27;23.60;58.60
27314;DHT22;14800;48.174;9.798;2022-08-01T07:28:53;23.60;58.30
27314;DHT22;14800;48.174;9.798;2022-08-01T07:31:19;23.70;58.40
27314;DHT22;14800;48.174;9.798;2022-08-01T07:33:44;23.80;58.10
27314;DHT22;14800;48.174;9.798;2022-08-01T07:36:11;23.90;58.10
27314;DHT22;14800;48.174;9.798;2022-08-01T07:38:37;23.90;57.90
27314;DHT22;14800;48.174;9.798;2022-08-01T07:41:03;24.00;57.90
27314;DHT22;14800;48.174;9.798;2022-08-01T07:43:28;24.10;57.80
27314;DHT22;14800;48.174;9.798;2022-08-01T07:45:54;24.10;57.50
27314;DHT22;14800;48.174;9.798;2022-08-01T07:48:20;24.20;57.60
27314;DHT22;14800;48.174;9.798;2022-08-01T07:50:49;24.30;57.50
27314;DHT22;14800;48.174;9.798;2022-08-01T07:53:15;24.40;57.40
27314;DHT22;14800;48.174;9.798;2022-08-01T07:55:41;24.40;57.30
27314;DHT22;14800;48.174;9.798;2022-08-01T07:58:07;24.50;56.90
27314;DHT22;14800;48.174;9.798;2022-08-01T08:00:33;24.60;56.90
27314;DHT22;14800;48.174;9.798;2022-08-01T08:02:58;24.70;56.60
27314;DHT22;14800;48.174;9.798;2022-08-01T08:05:25;24.70;56.30
27314;DHT22;14800;48.174;9.798;2022-08-01T08:07:51;24.70;56.30
27314;DHT22;14800;48.174;9.798;2022-08-01T08:10:17;24.90;56.50
27314;DHT22;14800;48.174;9.798;2022-08-01T08:12:43;24.90;56.10
27314;DHT22;14800;48.174;9.798;2022-08-01T08:15:09;25.00;56.20
27314;DHT22;14800;48.174;9.798;2022-08-01T08:17:34;25.00;56.00
27314;DHT22;14800;48.174;9.798;2022-08-01T08:20:04;25.10;55.70
27314;DHT22;14800;48.174;9.798;2022-08-01T08:22:29;25.20;55.70
27314;DHT22;14800;48.174;9.798;2022-08-01T08:24:55;25.30;55.40
27314;DHT22;14800;48.174;9.798;2022-08-01T08:27:20;25.30;55.00
27314;DHT22;14800;48.174;9.798;2022-08-01T08:29:46;25.30;55.00
27314;DHT22;14800;48.174;9.798;2022-08-01T08:32:12;25.40;55.10
27314;DHT22;14800;48.174;9.798;2022-08-01T08:34:37;25.50;55.00
27314;DHT22;14800;48.174;9.798;2022-08-01T08:37:03;25.50;54.40
27314;DHT22;14800;48.174;9.798;2022-08-01T08:39:28;25.50;54.60
27314;DHT22;14800;48.174;9.798;2022-08-01T08:41:58;25.60;54.60
27314;DHT22;14800;48.174;9.798;2022-08-01T08:44:24;25.60;54.50
27314;DHT22;14800;48.174;9.798;2022-08-01T08:46:51;25.70;54.20
27314;DHT22;14800;48.174;9.798;2022-08-01T08:49:24;25.80;54.10
27314;DHT22;14800;48.174;9.798;2022-08-01T08:51:51;25.90;54.20
27314;DHT22;14800;48.174;9.798;2022-08-01T08:54:19;26.00;54.10
27314;DHT22;14800;48.174;9.798;2022-08-01T08:56:46;26.00;53.60
27314;DHT22;14800;48.174;9.798;2022-08-01T08:59:13;26.10;54.10
27314;DHT22;14800;48.174;9.798;2022-08-01T09:01:40;26.20;53.40
27314;DHT22;14800;48.174;9.798;2022-08-01T09:04:06;26.20;53.40
27314;DHT22;14800;48.174;9.798;2022-08-01T09:06:32;26.30;53.50
27314;DHT22;14800;48.174;9.798;2022-08-01T09:08:58;26.40;53.40
27314;DHT22;14800;48.174;9.798;2022-08-01T09:11:24;26.50;53.30
27314;DHT22;14800;48.174;9.798;2022-08-01T09:14:15;26.60;53.40
27314;DHT22;14800;48.174;9.798;2022-08-01T09:17:05;26.70;53.10
27314;DHT22;14800;48.174;9.798;2022-08-01T09:19:41;26.80;52.40
27314;DHT22;14800;48.174;9.798;2022-08-01T09:22:09;26.90;51.60
27314;DHT22;14800;48.174;9.798;2022-08-01T09:24:35;27.00;52.20
27314;DHT22;14800;48.174;9.798;2022-08-01T09:27:01;27.10;51.90
27314;DHT22;14800;48.174;9.798;2022-08-01T09:29:39;27.10;51.80
27314;DHT22;14800;48.174;9.798;2022-08-01T09:32:06;27.20;51.80
27314;DHT22;14800;48.174;9.798;2022-08-01T09:34:31;27.20;51.60
27314;DHT22;14800;48.174;9.798;2022-08-01T09:37:00;27.30;51.80
27314;DHT22;14800;48.174;9.798;2022-08-01T09:39:34;27.40;51.00
27314;DHT22;14800;48.174;9.798;2022-08-01T09:42:21;27.40;51.10
27314;DHT22;14800;48.174;9.798;2022-08-01T09:44:47;27.50;51.50
27314;DHT22;14800;48.174;9.798;2022-08-01T09:47:13;27.60;51.40
27314;DHT22;14800;48.174;9.798;2022-08-01T09:49:40;27.70;51.30
27314;DHT22;14800;48.174;9.798;2022-08-01T09:52:27;27.80;51.00
27314;DHT22;14800;48.174;9.798;2022-08-01T09:55:04;27.90;50.50
27314;DHT22;14800;48.174;9.798;2022-08-01T09:57:30;28.00;49.80
27314;DHT22;14800;48.174;9.798;2022-08-01T09:59:57;28.10;50.40
27314;DHT22;14800;48.174;9.798;2022-08-01T10:02:38;28.20;50.40
27314;DHT22;14800;48.174;9.798;2022-08-01T10:05:07;28.30;49.30
27314;DHT22;14800;48.174;9.798;2022-08-01T10:07:33;28.40;49.80
27314;DHT22;14800;48.174;9.798;2022-08-01T10:10:20;28.40;49.50
27314;DHT22;14800;48.174;9.798;2022-08-01T10:12:45;28.40;49.00
27314;DHT22;14800;48.174;9.798;2022-08-01T10:15:16;28.50;49.20
27314;DHT22;14800;48.174;9.798;2022-08-01T10:17:54;28.50;48.70
27314;DHT22;14800;48.174;9.798;2022-08-01T10:20:22;28.60;49.40
27314;DHT22;14800;48.174;9.798;2022-08-01T10:22:49;28.60;49.30
27314;DHT22;14800;48.174;9.798;2022-08-01T10:25:17;28.70;48.30
27314;DHT22;14800;48.174;9.798;2022-08-01T10:27:47;28.80;48.40
27314;DHT22;14800;48.174;9.798;2022-08-01T10:30:14;28.90;48.90
27314;DHT22;14800;48.174;9.798;2022-08-01T10:32:41;29.00;48.70
27314;DHT22;14800;48.174;9.798;2022-08-01T10:35:08;29.00;48.50
27314;DHT22;14800;48.174;9.798;2022-08-01T10:37:35;29.10;47.40
27314;DHT22;14800;48.174;9.798;2022-08-01T10:40:01;29.30;47.00
27314;DHT22;14800;48.174;9.798;2022-08-01T10:42:27;29.30;46.30
27314;DHT22;14800;48.174;9.798;2022-08-01T10:44:54;29.40;45.90
27314;DHT22;14800;48.174;9.798;2022-08-01T10:47:25;29.30;46.10
27314;DHT22;14800;48.174;9.798;2022-08-01T10:50:07;29.30;46.30
27314;DHT22;14800;48.174;9.798;2022-08-01T10:52:36;29.40;46.10
27314;DHT22;14800;48.174;9.798;2022-08-01T10:55:06;29.40;46.20
27314;DHT22;14800;48.174;9.798;2022-08-01T10:57:44;29.50;45.40
27314;DHT22;14800;48.174;9.798;2022-08-01T11:00:19;29.50;45.60
27314;DHT22;14800;48.174;9.798;2022-08-01T11:03:01;29.60;45.60
27314;DHT22;14800;48.174;9.798;2022-08-01T11:05:32;29.60;46.10
27314;DHT22;14800;48.174;9.798;2022-08-01T11:08:02;29.70;45.00
27314;DHT22;14800;48.174;9.798;2022-08-01T11:12:53;29.60;45.20
27314;DHT22;14800;48.174;9.798;2022-08-01T11:15:20;29.50;45.00
27314;DHT22;14800;48.174;9.798;2022-08-01T11:17:56;29.40;44.80
27314;DHT22;14800;48.174;9.798;2022-08-01T11:20:25;29.40;45.50
27314;DHT22;14800;48.174;9.798;2022-08-01T11:41:29;29.10;46.00
27314;DHT22;14800;48.174;9.798;2022-08-01T11:52:12;29.10;45.10
27314;DHT22;14800;48.174;9.798;2022-08-01T11:54:39;29.10;44.90
27314;DHT22;14800;48.174;9.798;2022-08-01T11:57:14;29.00;45.00
27314;DHT22;14800;48.174;9.798;2022-08-01T11:59:46;28.90;45.40
27314;DHT22;14800;48.174;9.798;2022-08-01T12:04:59;28.90;45.10
27314;DHT22;14800;48.174;9.798;2022-08-01T12:07:27;28.90;45.20
27314;DHT22;14800;48.174;9.798;2022-08-01T12:10:14;28.90;45.90
27314;DHT22;14800;48.174;9.798;2022-08-01T12:12:50;29.00;44.40
27314;DHT22;14800;48.174;9.798;2022-08-01T12:15:18;29.10;45.20
27314;DHT22;14800;48.174;9.798;2022-08-01T12:17:48;29.10;45.00
27314;DHT22;14800;48.174;9.798;2022-08-01T12:20:20;29.10;44.90
27314;DHT22;14800;48.174;9.798;2022-08-01T12:22:46;29.20;44.60
27314;DHT22;14800;48.174;9.798;2022-08-01T12:25:14;29.10;44.90
27314;DHT22;14800;48.174;9.798;2022-08-01T12:27:42;29.10;45.20
27314;DHT22;14800;48.174;9.798;2022-08-01T12:30:11;29.10;45.00
27314;DHT22;14800;48.174;9.798;2022-08-01T12:32:38;29.10;45.20
27314;DHT22;14800;48.174;9.798;2022-08-01T12:37:45;29.00;45.40
27314;DHT22;14800;48.174;9.798;2022-08-01T12:40:17;28.90;44.60
27314;DHT22;14800;48.174;9.798;2022-08-01T12:42:45;28.80;45.50
27314;DHT22;14800;48.174;9.798;2022-08-01T12:45:13;28.70;46.20
27314;DHT22;14800;48.174;9.798;2022-08-01T12:47:40;28.70;46.30
27314;DHT22;14800;48.174;9.798;2022-08-01T12:50:20;28.60;47.70
27314;DHT22;14800;48.174;9.798;2022-08-01T12:52:47;28.60;50.00
27314;DHT22;14800;48.174;9.798;2022-08-01T12:55:20;28.50;48.80
27314;DHT22;14800;48.174;9.798;2022-08-01T12:57:59;28.50;49.50
27314;DHT22;14800;48.174;9.798;2022-08-01T13:00:28;28.50;51.60
27314;DHT22;14800;48.174;9.798;2022-08-01T13:03:04;28.40;50.70
27314;DHT22;14800;48.174;9.798;2022-08-01T13:05:46;28.20;52.40
27314;DHT22;14800;48.174;9.798;2022-08-01T13:08:19;28.10;51.50
27314;DHT22;14800;48.174;9.798;2022-08-01T13:10:45;27.90;51.10
27314;DHT22;14800;48.174;9.798;2022-08-01T13:13:11;27.70;51.90
27314;DHT22;14800;48.174;9.798;2022-08-01T13:15:39;27.50;52.60
27314;DHT22;14800;48.174;9.798;2022-08-01T13:18:30;27.30;53.30
27314;DHT22;14800;48.174;9.798;2022-08-01T13:21:17;27.20;54.20
27314;DHT22;14800;48.174;9.798;2022-08-01T13:24:05;27.10;54.40
27314;DHT22;14800;48.174;9.798;2022-08-01T13:26:48;26.90;54.80
27314;DHT22;14800;48.174;9.798;2022-08-01T13:29:19;26.80;55.30
27314;DHT22;14800;48.174;9.798;2022-08-01T13:31:46;26.60;55.40
27314;DHT22;14800;48.174;9.798;2022-08-01T13:34:11;26.40;55.30
27314;DHT22;14800;48.174;9.798;2022-08-01T13:36:38;26.30;55.70
27314;DHT22;14800;48.174;9.798;2022-08-01T13:39:04;26.10;55.90
27314;DHT22;14800;48.174;9.798;2022-08-01T13:41:48;26.00;56.30
27314;DHT22;14800;48.174;9.798;2022-08-01T13:44:14;25.90;56.50
27314;DHT22;14800;48.174;9.798;2022-08-01T13:46:42;25.90;57.50
27314;DHT22;14800;48.174;9.798;2022-08-01T13:49:09;25.80;57.70
27314;DHT22;14800;48.174;9.798;2022-08-01T13:51:36;25.70;58.70
27314;DHT22;14800;48.174;9.798;2022-08-01T13:54:02;25.60;58.50
27314;DHT22;14800;48.174;9.798;2022-08-01T13:56:28;25.50;59.10
27314;DHT22;14800;48.174;9.798;2022-08-01T13:58:54;25.60;59.60
27314;DHT22;14800;48.174;9.798;2022-08-01T14:01:20;25.50;60.00
27314;DHT22;14800;48.174;9.798;2022-08-01T14:03:47;25.50;60.30
27314;DHT22;14800;48.174;9.798;2022-08-01T14:06:13;25.50;61.50
27314;DHT22;14800;48.174;9.798;2022-08-01T14:08:41;25.50;60.90
27314;DHT22;14800;48.174;9.798;2022-08-01T14:11:06;25.50;60.90
27314;DHT22;14800;48.174;9.798;2022-08-01T14:13:32;25.60;60.80
27314;DHT22;14800;48.174;9.798;2022-08-01T14:15:58;25.60;61.10
27314;DHT22;14800;48.174;9.798;2022-08-01T14:18:25;25.60;61.40
27314;DHT22;14800;48.174;9.798;2022-08-01T14:20:51;25.60;61.90
27314;DHT22;14800;48.174;9.798;2022-08-01T14:23:16;25.60;62.50
27314;DHT22;14800;48.174;9.798;2022-08-01T14:25:42;25.60;63.30
27314;DHT22;14800;48.174;9.798;2022-08-01T14:28:08;25.60;63.20
27314;DHT22;14800;48.174;9.798;2022-08-01T14:30:34;25.60;63.80
27314;DHT22;14800;48.174;9.798;2022-08-01T14:33:00;25.60;63.60
27314;DHT22;14800;48.174;9.798;2022-08-01T14:35:26;25.50;63.60
27314;DHT22;14800;48.174;9.798;2022-08-01T14:37:51;25.50;64.00
27314;DHT22;14800;48.174;9.798;2022-08-01T14:40:17;25.50;64.00
27314;DHT22;14800;48.174;9.798;2022-08-01T14:42:43;25.40;64.30
27314;DHT22;14800;48.174;9.798;2022-08-01T14:45:11;25.30;64.70
27314;DHT22;14800;48.174;9.798;2022-08-01T14:47:37;25.20;65.20
27314;DHT22;14800;48.174;9.798;2022-08-01T14:50:05;25.10;65.50
27314;DHT22;14800;48.174;9.798;2022-08-01T14:52:32;25.00;65.70
27314;DHT22;14800;48.174;9.798;2022-08-01T14:54:58;25.00;66.30
27314;DHT22;14800;48.174;9.798;2022-08-01T14:57:24;24.90;66.00
27314;DHT22;14800;48.174;9.798;2022-08-01T14:59:49;24.90;66.70
27314;DHT22;14800;48.174;9.798;2022-08-01T15:02:15;24.90;67.10
27314;DHT22;14800;48.174;9.798;2022-08-01T15:04:43;24.80;67.40
27314;DHT22;14800;48.174;9.798;2022-08-01T15:07:09;24.80;68.40
27314;DHT22;14800;48.174;9.798;2022-08-01T15:09:35;24.70;68.60
27314;DHT22;14800;48.174;9.798;2022-08-01T15:12:01;24.80;68.30
27314;DHT22;14800;48.174;9.798;2022-08-01T15:14:27;24.80;68.50
27314;DHT22;14800;48.174;9.798;2022-08-01T15:17:11;24.80;69.00
27314;DHT22;14800;48.174;9.798;2022-08-01T15:19:37;24.80;69.50
27314;DHT22;14800;48.174;9.798;2022-08-01T15:22:03;24.90;70.20
27314;DHT22;14800;48.174;9.798;2022-08-01T15:24:29;25.00;70.70
27314;DHT22;14800;48.174;9.798;2022-08-01T15:26:55;25.00;70.40
27314;DHT22;14800;48.174;9.798;2022-08-01T15:29:20;25.10;68.30
27314;DHT22;14800;48.174;9.798;2022-08-01T15:31:46;25.20;68.00
27314;DHT22;14800;48.174;9.798;2022-08-01T15:34:12;25.30;68.60
27314;DHT22;14800;48.174;9.798;2022-08-01T15:36:37;25.40;68.30
27314;DHT22;14800;48.174;9.798;2022-08-01T15:39:03;25.50;68.50
27314;DHT22;14800;48.174;9.798;2022-08-01T15:41:29;25.50;69.00
27314;DHT22;14800;48.174;9.798;2022-08-01T15:43:54;25.60;69.30
27314;DHT22;14800;48.174;9.798;2022-08-01T15:46:20;25.60;69.30
27314;DHT22;14800;48.174;9.798;2022-08-01T15:48:45;25.60;69.10
27314;DHT22;14800;48.174;9.798;2022-08-01T15:51:11;25.60;69.20
27314;DHT22;14800;48.174;9.798;2022-08-01T15:53:37;25.60;69.30
27314;DHT22;14800;48.174;9.798;2022-08-01T15:56:02;25.60;69.10
27314;DHT22;14800;48.174;9.798;2022-08-01T15:58:28;25.70;69.50
27314;DHT22;14800;48.174;9.798;2022-08-01T16:00:54;25.70;69.30
27314;DHT22;14800;48.174;9.798;2022-08-01T16:03:19;25.70;68.90
27314;DHT22;14800;48.174;9.798;2022-08-01T16:05:46;25.70;69.30
27314;DHT22;14800;48.174;9.798;2022-08-01T16:08:15;25.70;69.30
27314;DHT22;14800;48.174;9.798;2022-08-01T16:10:41;25.70;69.50
27314;DHT22;14800;48.174;9.798;2022-08-01T16:13:08;25.70;69.30
27314;DHT22;14800;48.174;9.798;2022-08-01T16:15:34;25.70;69.50